Time;durP1;ratioP1;P1;durP2;ratioP2;P2;SDS_P1;SDS_P2;PMS_P1;PMS_P2;Temp;Humidity;BMP_temperature;BMP_pressure;BME280_temperature;BME280_humidity;BME280_pressure;Samples;Min_cycle;Max_cycle;Signal;HPM_P1;HPM_P2
2023/10/22 00:00:07;;;;;;;10.50;2.60;;;13.50;67.90;;;;;;5012427;28;20459;-70
2023/10/22 00:02:35;;;;;;;6.23;1.60;;;13.40;68.30;;;;;;5012416;28;20483;-70
2023/10/22 00:05:02;;;;;;;8.67;2.07;;;13.30;71.60;;;;;;5012065;28;20933;-70
2023/10/22 00:07:29;;;;;;;7.30;1.80;;;13.30;71.80;;;;;;5012231;28;20495;-70
2023/10/22 00:09:56;;;;;;;10.13;3.20;;;13.30;72.10;;;;;;5012379;28;20539;-70
2023/10/22 00:12:23;;;;;;;7.60;2.53;;;13.30;71.70;;;;;;5012654;28;20542;-70
2023/10/22 00:14:50;;;;;;;5.07;2.00;;;13.30;72.00;;;;;;5012242;28;20452;-70
2023/10/22 00:17:17;;;;;;;8.80;1.93;;;13.20;72.00;;;;;;5012271;28;20538;-70
2023/10/22 00:19:45;;;;;;;5.87;2.23;;;13.20;71.70;;;;;;5012044;28;20460;-70
2023/10/22 00:22:14;;;;;;;8.03;2.27;;;13.20;72.00;;;;;;5012214;28;20543;-70
2023/10/22 00:24:41;;;;;;;6.53;2.20;;;13.20;72.00;;;;;;5012136;28;20455;-70
2023/10/22 00:27:07;;;;;;;8.83;2.77;;;13.20;72.30;;;;;;5012017;28;20454;-70
2023/10/22 00:29:34;;;;;;;7.20;1.80;;;13.10;71.90;;;;;;5011974;28;20486;-70
2023/10/22 00:32:01;;;;;;;7.47;1.90;;;13.10;71.90;;;;;;5011947;28;20456;-70
2023/10/22 00:34:28;;;;;;;12.23;2.53;;;13.20;72.80;;;;;;5012544;28;21023;-70
2023/10/22 00:36:56;;;;;;;8.03;3.20;;;13.10;71.90;;;;;;5015852;28;20960;-70
2023/10/22 00:39:23;;;;;;;8.33;1.83;;;13.10;71.90;;;;;;5015892;28;20862;-70
2023/10/22 00:41:50;;;;;;;6.47;2.13;;;13.20;72.00;;;;;;5015649;28;20455;-70
2023/10/22 00:44:17;;;;;;;5.63;1.60;;;13.20;72.00;;;;;;5015700;28;20537;-70
2023/10/22 00:46:45;;;;;;;8.40;2.30;;;13.20;72.00;;;;;;5015471;28;20538;-70
2023/10/22 00:49:13;;;;;;;7.40;1.80;;;13.30;72.10;;;;;;5015567;28;20483;-70
2023/10/22 00:51:40;;;;;;;7.17;2.03;;;13.30;72.10;;;;;;5015535;28;20559;-70
2023/10/22 00:54:08;;;;;;;5.40;1.50;;;13.30;72.00;;;;;;5015545;28;20947;-70
2023/10/22 00:56:36;;;;;;;8.00;1.67;;;13.30;72.10;;;;;;5015312;28;20457;-70
2023/10/22 00:59:03;;;;;;;6.90;1.67;;;13.20;72.10;;;;;;5015337;28;20935;-70
2023/10/22 01:01:31;;;;;;;8.60;1.77;;;13.20;74.30;;;;;;5015288;28;20539;-70
2023/10/22 01:03:58;;;;;;;5.37;1.37;;;13.20;75.60;;;;;;5015288;28;20456;-70
2023/10/22 01:06:26;;;;;;;6.60;1.30;;;13.20;75.00;;;;;;5015272;28;20537;-70
2023/10/22 01:08:55;;;;;;;4.40;1.40;;;13.20;75.00;;;;;;5015031;28;20479;-70
2023/10/22 01:11:23;;;;;;;6.40;1.33;;;13.20;77.70;;;;;;5015172;28;20455;-70
2023/10/22 01:13:50;;;;;;;5.50;1.70;;;13.20;75.40;;;;;;5014990;28;20478;-70
2023/10/22 01:16:17;;;;;;;4.70;1.30;;;13.30;77.20;;;;;;5015260;28;20826;-70
2023/10/22 01:18:44;;;;;;;3.73;1.30;;;13.30;75.90;;;;;;5015198;28;20865;-70
2023/10/22 01:21:11;;;;;;;4.70;1.37;;;13.30;75.20;;;;;;5015022;28;20456;-70
2023/10/22 01:23:39;;;;;;;8.50;1.60;;;13.30;75.30;;;;;;5014925;28;20448;-70
2023/10/22 01:26:07;;;;;;;4.40;1.40;;;13.30;75.60;;;;;;5014801;28;20874;-70
2023/10/22 01:28:34;;;;;;;6.20;1.37;;;13.40;74.60;;;;;;5014693;28;20483;-71
2023/10/22 01:31:01;;;;;;;6.33;1.50;;;13.30;76.60;;;;;;5014800;28;20551;-70
2023/10/22 01:33:28;;;;;;;4.00;1.50;;;13.30;76.10;;;;;;5014841;28;20463;-70
2023/10/22 01:35:55;;;;;;;4.47;1.37;;;13.40;74.50;;;;;;5014730;28;20826;-70
2023/10/22 01:38:21;;;;;;;4.67;1.23;;;13.40;73.90;;;;;;5014600;28;21059;-70
2023/10/22 01:40:50;;;;;;;4.10;1.00;;;13.40;80.00;;;;;;5014564;28;20456;-70
2023/10/22 01:43:17;;;;;;;6.33;2.13;;;13.30;79.50;;;;;;5015014;28;20452;-70
2023/10/22 01:45:44;;;;;;;3.70;1.10;;;13.30;80.00;;;;;;5014585;28;20455;-70
2023/10/22 01:48:11;;;;;;;5.83;1.23;;;13.30;80.70;;;;;;5014593;28;20479;-70
2023/10/22 01:50:37;;;;;;;3.80;1.10;;;13.30;79.90;;;;;;5014617;28;20875;-70
2023/10/22 01:53:04;;;;;;;4.10;1.20;;;13.30;79.80;;;;;;5014271;28;20550;-70
2023/10/22 01:55:31;;;;;;;3.60;1.10;;;13.30;79.80;;;;;;5014477;28;20534;-70
2023/10/22 01:57:59;;;;;;;5.17;1.20;;;13.30;80.00;;;;;;5014689;28;20460;-70
2023/10/22 02:00:27;;;;;;;6.33;1.33;;;13.30;80.70;;;;;;5014437;28;20543;-70
2023/10/22 02:02:54;;;;;;;4.53;1.10;;;13.30;79.90;;;;;;5014747;28;20491;-70
2023/10/22 02:05:21;;;;;;;3.40;1.00;;;13.40;80.00;;;;;;5014149;28;20459;-70
2023/10/22 02:07:47;;;;;;;3.87;1.07;;;13.40;80.00;;;;;;5014055;28;20452;-70
2023/10/22 02:10:15;;;;;;;3.47;1.10;;;13.30;79.90;;;;;;5013941;28;20527;-70
2023/10/22 02:12:41;;;;;;;5.70;1.40;;;13.40;80.00;;;;;;5014173;28;20448;-70
2023/10/22 02:15:10;;;;;;;4.30;1.20;;;13.40;80.80;;;;;;5014030;28;20538;-70
2023/10/22 02:17:38;;;;;;;4.43;1.13;;;13.40;80.00;;;;;;5014062;28;20542;-70
2023/10/22 02:20:08;;;;;;;6.27;1.47;;;13.40;80.00;;;;;;5013741;28;20936;-70
2023/10/22 02:22:36;;;;;;;8.63;1.60;;;13.40;80.00;;;;;;5013737;28;20892;-70
2023/10/22 02:25:02;;;;;;;8.03;2.60;;;13.40;80.00;;;;;;5013879;28;20533;-70
2023/10/22 02:27:29;;;;;;;5.80;1.67;;;13.30;80.00;;;;;;5013964;28;20452;-70
2023/10/22 02:29:56;;;;;;;6.70;2.00;;;13.30;80.00;;;;;;5013582;28;21055;-70
2023/10/22 02:32:25;;;;;;;5.23;1.63;;;13.30;80.00;;;;;;5013569;28;20543;-70
2023/10/22 02:34:52;;;;;;;4.77;2.03;;;13.30;80.00;;;;;;5013420;28;20544;-70
2023/10/22 02:37:19;;;;;;;3.77;1.80;;;13.20;79.90;;;;;;5013501;28;20458;-70
2023/10/22 02:39:46;;;;;;;5.90;1.97;;;13.10;82.60;;;;;;5013840;28;20449;-70
2023/10/22 02:42:13;;;;;;;4.97;2.40;;;13.20;83.90;;;;;;5013781;28;20807;-70
2023/10/22 02:44:40;;;;;;;4.93;2.33;;;13.10;86.10;;;;;;5013357;28;20452;-70
2023/10/22 02:47:07;;;;;;;6.40;2.90;;;13.10;86.80;;;;;;5013525;28;20543;-70
2023/10/22 02:49:35;;;;;;;4.93;2.80;;;13.10;86.60;;;;;;5013146;28;20487;-70
2023/10/22 02:52:03;;;;;;;7.60;2.87;;;13.10;87.50;;;;;;5013461;28;20465;-70
2023/10/22 02:54:30;;;;;;;5.57;3.23;;;13.10;87.50;;;;;;5013424;28;20455;-70
2023/10/22 02:56:57;;;;;;;5.83;2.77;;;13.10;87.50;;;;;;5013025;28;21019;-70
2023/10/22 02:59:24;;;;;;;6.30;4.60;;;13.10;87.50;;;;;;5013052;28;20450;-70
2023/10/22 03:01:51;;;;;;;5.17;3.87;;;13.10;87.50;;;;;;5013097;28;20538;-70
2023/10/22 03:04:17;;;;;;;6.57;2.90;;;13.10;87.50;;;;;;5012930;28;20537;-70
2023/10/22 03:06:46;;;;;;;4.60;3.13;;;13.10;87.50;;;;;;5013294;28;20455;-70
2023/10/22 03:09:13;;;;;;;10.23;3.87;;;13.10;87.50;;;;;;5013158;28;20484;-70
2023/10/22 03:11:41;;;;;;;4.50;3.60;;;13.10;87.50;;;;;;5012920;28;20456;-70
2023/10/22 03:14:08;;;;;;;5.33;3.17;;;13.10;87.70;;;;;;5013115;28;20820;-70
2023/10/22 03:16:35;;;;;;;4.80;4.03;;;13.10;87.70;;;;;;5012790;28;20450;-70
2023/10/22 03:19:02;;;;;;;4.63;4.13;;;13.10;89.40;;;;;;5012761;28;20473;-70
2023/10/22 03:21:35;;;;;;;5.87;5.37;;;13.10;90.50;;;;;;5013031;28;20451;-70
2023/10/22 03:24:03;;;;;;;7.07;6.50;;;13.10;92.20;;;;;;5012797;28;20450;-70
2023/10/22 03:26:31;;;;;;;8.30;7.70;;;13.00;92.50;;;;;;5012777;28;20456;-70
2023/10/22 03:28:57;;;;;;;10.80;9.80;;;13.00;92.20;;;;;;5012652;28;20482;-70
2023/10/22 03:31:25;;;;;;;19.93;19.00;;;12.90;92.20;;;;;;5012592;28;20460;-70
2023/10/22 03:33:52;;;;;;;45.70;43.80;;;12.80;94.30;;;;;;5012762;28;20467;-70
2023/10/22 03:36:19;;;;;;;65.27;62.73;;;12.70;96.40;;;;;;5012660;28;20527;-70
2023/10/22 03:38:45;;;;;;;22.57;21.47;;;12.60;98.70;;;;;;5012617;28;20448;-71
2023/10/22 03:41:14;;;;;;;49.73;47.83;;;12.60;98.70;;;;;;5012969;28;20536;-72
2023/10/22 03:43:41;;;;;;;92.50;89.33;;;12.50;98.70;;;;;;5012449;28;20464;-74
2023/10/22 03:46:08;;;;;;;229.47;222.73;;;12.50;99.90;;;;;;5012410;28;20453;-74
2023/10/22 03:48:34;;;;;;;334.73;325.20;;;12.40;99.90;;;;;;5012346;28;20543;-73
2023/10/22 03:51:03;;;;;;;276.83;268.93;;;12.30;99.90;;;;;;5012459;28;20539;-73
2023/10/22 03:53:30;;;;;;;386.40;375.33;;;12.30;99.90;;;;;;5011549;28;20988;-73
2023/10/22 03:55:57;;;;;;;425.23;412.93;;;12.20;99.90;;;;;;5011539;28;20942;-73
2023/10/22 03:58:25;;;;;;;420.50;408.30;;;12.20;99.90;;;;;;5011445;28;20537;-73
2023/10/22 04:00:54;;;;;;;425.40;412.60;;;12.20;99.90;;;;;;5011734;28;20453;-73
2023/10/22 04:03:22;;;;;;;571.23;553.03;;;12.20;99.90;;;;;;5011405;28;20452;-73
2023/10/22 04:05:55;;;;;;;620.10;599.23;;;12.10;99.90;;;;;;5011425;28;20461;-73
2023/10/22 04:08:22;;;;;;;682.07;656.87;;;12.10;99.90;;;;;;5011542;28;20454;-73
2023/10/22 04:10:49;;;;;;;694.10;668.13;;;12.10;99.90;;;;;;5013875;28;20579;-72
2023/10/22 04:13:16;;;;;;;743.50;713.53;;;12.10;99.90;;;;;;5015065;28;20893;-72
2023/10/22 04:15:45;;;;;;;697.37;670.37;;;12.10;99.90;;;;;;5014736;28;21033;-72
2023/10/22 04:18:12;;;;;;;732.90;703.70;;;12.10;99.90;;;;;;5014935;28;20450;-72
2023/10/22 04:20:40;;;;;;;755.27;723.90;;;12.10;99.90;;;;;;5014789;28;20541;-72
2023/10/22 04:23:08;;;;;;;737.83;707.90;;;12.10;99.90;;;;;;5014704;28;20958;-72
2023/10/22 04:25:38;;;;;;;718.97;689.73;;;12.10;99.90;;;;;;5014530;28;20454;-71
2023/10/22 04:28:06;;;;;;;721.77;692.43;;;12.10;99.90;;;;;;5014964;28;20456;-72
2023/10/22 04:30:35;;;;;;;721.50;691.80;;;12.10;99.90;;;;;;5014581;28;20567;-72
2023/10/22 04:33:03;;;;;;;682.77;655.30;;;12.10;99.90;;;;;;5015003;28;20533;-71
2023/10/22 04:35:30;;;;;;;716.27;686.20;;;12.10;99.90;;;;;;5014527;28;20475;-71
2023/10/22 04:37:57;;;;;;;718.73;688.00;;;12.10;99.90;;;;;;5014467;28;20541;-71
2023/10/22 04:40:26;;;;;;;694.07;663.57;;;12.10;99.90;;;;;;5014533;28;20928;-71
2023/10/22 04:42:57;;;;;;;695.57;665.77;;;12.10;99.90;;;;;;5014609;28;20455;-71
2023/10/22 04:45:23;;;;;;;721.83;690.73;;;12.10;99.90;;;;;;5014419;28;20464;-71
2023/10/22 04:47:50;;;;;;;710.07;679.70;;;12.20;99.90;;;;;;5014382;28;20548;-71
2023/10/22 04:50:19;;;;;;;755.10;721.40;;;12.20;99.90;;;;;;5014161;28;20473;-71
2023/10/22 04:52:46;;;;;;;721.37;689.23;;;12.20;99.90;;;;;;4976763;28;1108263;-71
2023/10/22 04:55:13;;;;;;;717.07;686.17;;;12.30;99.90;;;;;;5015613;28;20211;-71
2023/10/22 04:57:40;;;;;;;745.53;712.60;;;12.30;99.90;;;;;;5015640;28;20448;-71
2023/10/22 05:00:09;;;;;;;757.43;723.17;;;12.30;99.90;;;;;;5015438;28;20530;-71
2023/10/22 05:02:36;;;;;;;760.43;725.13;;;12.30;99.90;;;;;;5015222;28;20449;-71
2023/10/22 05:05:03;;;;;;;748.90;714.80;;;12.30;99.90;;;;;;5015083;28;20533;-71
2023/10/22 05:07:32;;;;;;;733.33;699.90;;;12.30;99.90;;;;;;5015332;28;20552;-71
2023/10/22 05:09:59;;;;;;;742.77;708.67;;;12.30;99.90;;;;;;5015127;28;20488;-71
2023/10/22 05:12:25;;;;;;;763.30;728.00;;;12.40;99.90;;;;;;5015233;28;20454;-71
2023/10/22 05:14:52;;;;;;;681.50;651.23;;;12.40;99.90;;;;;;5015098;28;20773;-73
2023/10/22 05:17:19;;;;;;;830.77;786.30;;;12.40;99.90;;;;;;5015191;28;20451;-77
2023/10/22 05:19:48;;;;;;;748.00;717.10;;;12.10;99.90;;;;;;5014914;28;20549;-76
2023/10/22 05:22:15;;;;;;;806.37;769.27;;;11.70;99.90;;;;;;5014603;28;20957;-76
2023/10/22 05:24:46;;;;;;;824.77;784.13;;;11.50;99.90;;;;;;5015027;28;20877;-77
2023/10/22 05:27:13;;;;;;;789.70;754.67;;;11.40;99.90;;;;;;5015048;28;20537;-76
2023/10/22 05:29:40;;;;;;;734.87;707.13;;;11.30;99.90;;;;;;5014799;28;20478;-76
2023/10/22 05:32:08;;;;;;;775.53;742.07;;;11.10;99.90;;;;;;5014700;28;20456;-76
2023/10/22 05:34:34;;;;;;;798.90;763.37;;;11.00;99.90;;;;;;5014731;28;20453;-76
2023/10/22 05:37:01;;;;;;;833.20;791.00;;;11.00;99.90;;;;;;5014941;28;20459;-76
2023/10/22 05:39:28;;;;;;;834.53;791.90;;;10.90;99.90;;;;;;5014832;28;20488;-77
2023/10/22 05:41:56;;;;;;;847.77;801.40;;;10.80;99.90;;;;;;5014521;28;20975;-76
2023/10/22 05:44:24;;;;;;;843.80;798.27;;;10.80;99.90;;;;;;5014570;28;20463;-76
2023/10/22 05:46:51;;;;;;;843.80;798.20;;;10.70;99.90;;;;;;5014615;28;20453;-76
2023/10/22 05:49:20;;;;;;;851.47;804.40;;;10.70;99.90;;;;;;5014426;28;20541;-76
2023/10/22 05:51:47;;;;;;;870.13;819.27;;;10.70;99.90;;;;;;5014339;28;20960;-76
2023/10/22 05:54:14;;;;;;;858.67;810.67;;;10.70;99.90;;;;;;5014591;28;20559;-76
2023/10/22 05:56:41;;;;;;;852.00;805.40;;;10.70;99.90;;;;;;5014730;28;20476;-76
2023/10/22 05:59:09;;;;;;;808.93;769.53;;;10.70;99.90;;;;;;5014299;28;20494;-76
2023/10/22 06:01:38;;;;;;;804.33;765.33;;;10.70;99.90;;;;;;5014140;28;20536;-76
2023/10/22 06:04:06;;;;;;;733.30;702.30;;;10.70;99.90;;;;;;5012013;28;20496;-76
2023/10/22 06:06:33;;;;;;;726.17;696.67;;;10.70;99.90;;;;;;4994159;28;20456;-76
2023/10/22 06:09:00;;;;;;;713.83;686.20;;;10.70;99.90;;;;;;4994437;28;20819;-76
2023/10/22 06:11:27;;;;;;;639.77;617.67;;;10.80;99.90;;;;;;4994017;28;21130;-76
2023/10/22 06:13:54;;;;;;;602.83;583.10;;;10.80;99.90;;;;;;4993852;28;20874;-75
2023/10/22 06:16:22;;;;;;;588.53;569.43;;;10.80;99.90;;;;;;4994107;28;21019;-75
2023/10/22 06:18:49;;;;;;;619.07;598.70;;;10.80;99.90;;;;;;4994179;28;20564;-75
2023/10/22 06:21:17;;;;;;;643.37;621.07;;;10.80;99.90;;;;;;4994501;28;20556;-75
2023/10/22 06:23:44;;;;;;;676.07;651.47;;;10.80;99.90;;;;;;4994271;28;20460;-75
2023/10/22 06:26:11;;;;;;;668.63;644.47;;;10.80;99.90;;;;;;4993925;28;20450;-75
2023/10/22 06:28:38;;;;;;;683.53;658.10;;;10.90;99.90;;;;;;4993808;28;20457;-75
2023/10/22 06:31:07;;;;;;;754.73;723.47;;;10.90;99.90;;;;;;4994107;28;20507;-75
2023/10/22 06:33:36;;;;;;;772.10;739.03;;;11.00;99.90;;;;;;4993344;28;20455;-75
2023/10/22 06:36:17;;;;;;;778.13;743.90;;;11.00;99.90;;;;;;4993950;28;20492;-74
2023/10/22 06:38:45;;;;;;;787.97;752.87;;;11.00;99.90;;;;;;4993847;28;20492;-74
2023/10/22 06:41:16;;;;;;;726.17;696.47;;;11.10;99.90;;;;;;4994175;28;20536;-74
2023/10/22 06:43:43;;;;;;;722.93;693.33;;;11.10;99.90;;;;;;4994093;28;20532;-74
2023/10/22 06:46:10;;;;;;;677.70;651.93;;;11.20;99.90;;;;;;4993181;28;20492;-74
2023/10/22 06:48:39;;;;;;;648.77;624.67;;;11.30;99.90;;;;;;4993803;28;20544;-74
2023/10/22 06:51:10;;;;;;;596.80;575.07;;;11.30;99.90;;;;;;4993555;28;20830;-74
2023/10/22 06:53:37;;;;;;;609.27;586.40;;;11.40;99.90;;;;;;4993379;28;20462;-74
2023/10/22 06:56:04;;;;;;;615.20;591.33;;;11.40;99.90;;;;;;4993860;28;20553;-74
2023/10/22 06:58:32;;;;;;;665.17;637.80;;;11.50;99.90;;;;;;4993510;28;20541;-74
2023/10/22 07:01:05;;;;;;;717.97;686.57;;;11.50;99.90;;;;;;4993528;28;20453;-73
2023/10/22 07:03:32;;;;;;;762.43;727.27;;;11.60;99.90;;;;;;4993849;28;20439;-73
2023/10/22 07:06:00;;;;;;;761.30;726.30;;;11.60;99.90;;;;;;4993212;28;20460;-74
2023/10/22 07:08:27;;;;;;;742.63;709.13;;;11.60;99.90;;;;;;4993645;28;20455;-74
2023/10/22 07:10:54;;;;;;;763.07;728.13;;;11.60;99.90;;;;;;4993494;28;20580;-73
2023/10/22 07:13:21;;;;;;;723.70;691.90;;;11.70;99.90;;;;;;4993441;28;20511;-73
2023/10/22 07:15:48;;;;;;;696.90;667.80;;;11.70;99.90;;;;;;4993259;28;20482;-73
2023/10/22 07:18:15;;;;;;;688.67;660.30;;;11.70;99.90;;;;;;4993154;28;20810;-73
2023/10/22 07:20:42;;;;;;;606.07;582.77;;;11.80;99.90;;;;;;4993374;28;20478;-73
2023/10/22 07:23:10;;;;;;;548.93;529.10;;;11.80;99.90;;;;;;4992600;28;20530;-73
2023/10/22 07:25:38;;;;;;;511.67;493.93;;;11.90;99.90;;;;;;4992907;28;20513;-73
2023/10/22 07:28:06;;;;;;;580.63;559.53;;;11.90;99.90;;;;;;4992955;28;20492;-73
2023/10/22 07:30:33;;;;;;;474.10;457.70;;;12.00;99.90;;;;;;4992993;28;20488;-73
2023/10/22 07:33:00;;;;;;;437.90;423.10;;;12.00;99.90;;;;;;4992761;28;20485;-73
2023/10/22 07:35:27;;;;;;;387.13;374.77;;;12.10;99.90;;;;;;4993023;28;20461;-73
2023/10/22 07:37:54;;;;;;;413.00;399.40;;;12.20;99.90;;;;;;4992647;28;20961;-73
2023/10/22 07:40:22;;;;;;;449.70;434.43;;;12.20;99.90;;;;;;4992893;28;20516;-73
2023/10/22 07:42:49;;;;;;;428.43;414.17;;;12.30;99.90;;;;;;4992438;28;20968;-73
2023/10/22 07:45:17;;;;;;;382.73;370.33;;;12.40;99.90;;;;;;4992609;28;20455;-73
2023/10/22 07:47:43;;;;;;;288.77;280.10;;;12.50;99.90;;;;;;4992887;28;20735;-73
2023/10/22 07:50:11;;;;;;;326.67;316.67;;;12.60;99.90;;;;;;4992723;28;20574;-73
2023/10/22 07:52:38;;;;;;;289.93;281.23;;;12.70;99.90;;;;;;4992025;28;20501;-73
2023/10/22 07:55:07;;;;;;;315.93;306.23;;;12.80;99.90;;;;;;5007664;28;20502;-73
2023/10/22 07:57:35;;;;;;;280.87;272.27;;;12.80;99.90;;;;;;5011863;28;20527;-73
2023/10/22 08:00:02;;;;;;;292.60;283.40;;;12.80;99.90;;;;;;5011814;28;20542;-73
2023/10/22 08:02:29;;;;;;;139.83;135.13;;;12.80;99.90;;;;;;5011984;28;20960;-73
2023/10/22 08:04:56;;;;;;;112.70;108.90;;;12.70;99.90;;;;;;5012125;28;20449;-73
2023/10/22 08:07:23;;;;;;;142.77;138.07;;;12.70;99.90;;;;;;5011964;28;20541;-73
2023/10/22 08:09:50;;;;;;;195.87;189.70;;;12.80;99.90;;;;;;5012203;28;20453;-73
2023/10/22 08:12:17;;;;;;;237.37;230.30;;;12.90;99.90;;;;;;5011830;28;20486;-74
2023/10/22 08:14:45;;;;;;;149.67;144.73;;;13.00;99.90;;;;;;5011730;28;21092;-74
2023/10/22 08:17:12;;;;;;;163.87;158.47;;;13.00;99.90;;;;;;5011623;28;20817;-74
2023/10/22 08:19:39;;;;;;;123.47;119.37;;;13.10;99.90;;;;;;5011798;28;20712;-74
2023/10/22 08:22:06;;;;;;;98.60;95.17;;;13.20;99.90;;;;;;5008299;28;20468;-74
2023/10/22 08:24:33;;;;;;;119.00;115.13;;;13.30;99.90;;;;;;5005305;28;20456;-74
2023/10/22 08:27:01;;;;;;;151.10;146.17;;;13.30;99.90;;;;;;4992103;28;20483;-74
2023/10/22 08:29:28;;;;;;;137.93;133.17;;;13.30;99.90;;;;;;5003712;28;20487;-73
2023/10/22 08:31:57;;;;;;;310.57;300.47;;;13.10;99.90;;;;;;5011407;28;20484;-73
2023/10/22 08:34:24;;;;;;;359.73;347.77;;;13.10;99.90;;;;;;5011126;28;20977;-73
2023/10/22 08:36:51;;;;;;;332.30;321.93;;;13.00;99.90;;;;;;5010891;28;20795;-73
2023/10/22 08:39:18;;;;;;;442.10;425.70;;;12.90;99.90;;;;;;5011775;28;20530;-73
2023/10/22 08:41:52;;;;;;;403.90;390.43;;;13.00;99.90;;;;;;5011180;28;20447;-73
2023/10/22 08:44:19;;;;;;;406.77;393.17;;;13.00;99.90;;;;;;5011786;28;20455;-73
2023/10/22 08:46:46;;;;;;;396.70;383.50;;;13.10;99.90;;;;;;5011906;28;20459;-73
2023/10/22 08:49:15;;;;;;;417.10;402.67;;;13.10;99.90;;;;;;5011936;28;20460;-73
2023/10/22 08:51:44;;;;;;;356.73;345.43;;;13.10;99.90;;;;;;5011586;28;20570;-72
2023/10/22 08:54:11;;;;;;;397.90;384.43;;;13.10;99.90;;;;;;5012137;28;20451;-72
2023/10/22 08:56:38;;;;;;;391.97;378.97;;;13.20;99.90;;;;;;5013656;28;20463;-72
2023/10/22 08:59:05;;;;;;;401.23;387.43;;;13.20;99.90;;;;;;5015301;28;20453;-72
2023/10/22 09:01:32;;;;;;;381.53;368.90;;;13.20;99.90;;;;;;5014884;28;20460;-72
2023/10/22 09:03:59;;;;;;;427.23;412.27;;;13.20;99.90;;;;;;5015217;28;20827;-72
2023/10/22 09:06:28;;;;;;;428.30;413.57;;;13.20;99.90;;;;;;5014946;28;20539;-72
2023/10/22 09:08:55;;;;;;;646.13;618.35;;;13.30;99.90;;;;;;5014705;28;20819;-73
2023/10/22 09:11:24;;;;;;;481.90;463.98;;;13.40;99.90;;;;;;5015423;28;20463;-72
2023/10/22 09:13:50;;;;;;;344.40;333.40;;;13.40;99.90;;;;;;5015243;28;20202;-72
2023/10/22 09:16:37;;;;;;;328.43;318.17;;;13.40;99.90;;;;;;5014998;28;21004;-72
2023/10/22 09:19:04;;;;;;;249.50;242.03;;;13.50;99.90;;;;;;5015107;28;20440;-72
2023/10/22 09:21:45;;;;;;;277.90;269.40;;;13.40;99.90;;;;;;5015332;28;20547;-72
2023/10/22 09:24:12;;;;;;;270.90;262.80;;;13.40;99.90;;;;;;5015037;28;20547;-72
2023/10/22 09:26:44;;;;;;;285.73;276.87;;;13.50;99.90;;;;;;5015011;28;20477;-72
2023/10/22 09:29:11;;;;;;;230.57;223.60;;;13.50;99.90;;;;;;5015048;28;20886;-72
2023/10/22 09:31:38;;;;;;;215.10;208.50;;;13.50;99.90;;;;;;5015208;28;20480;-72
2023/10/22 09:34:12;;;;;;;251.37;243.77;;;13.60;99.90;;;;;;5014863;28;20974;-72
2023/10/22 09:36:53;;;;;;;228.30;221.40;;;13.70;99.90;;;;;;5015008;28;20456;-72
2023/10/22 09:39:33;;;;;;;212.23;205.77;;;13.70;99.90;;;;;;5014828;28;20455;-72
2023/10/22 09:42:01;;;;;;;158.93;153.77;;;13.70;99.90;;;;;;5015012;28;20806;-72
2023/10/22 09:44:28;;;;;;;192.70;186.73;;;13.70;99.90;;;;;;5014795;28;20506;-71
2023/10/22 09:46:55;;;;;;;132.47;128.17;;;13.70;99.90;;;;;;5014748;28;20585;-72
2023/10/22 09:49:23;;;;;;;133.43;129.03;;;13.70;99.90;;;;;;5014704;28;20538;-71
2023/10/22 09:51:55;;;;;;;101.17;97.70;;;13.70;99.90;;;;;;5014647;28;20479;-71
2023/10/22 09:54:25;;;;;;;92.10;88.87;;;13.80;99.90;;;;;;5014443;28;20995;-71
2023/10/22 09:56:53;;;;;;;56.63;54.50;;;13.90;99.90;;;;;;5014700;28;20551;-71
2023/10/22 09:59:22;;;;;;;48.87;46.87;;;14.00;99.90;;;;;;5014782;28;20876;-71
2023/10/22 10:01:50;;;;;;;32.40;31.07;;;14.10;99.90;;;;;;5014421;28;20531;-71
2023/10/22 10:04:18;;;;;;;20.83;19.73;;;14.20;99.90;;;;;;5014446;28;20550;-72
2023/10/22 10:06:45;;;;;;;23.03;21.93;;;14.40;99.90;;;;;;5013368;28;20857;-72
2023/10/22 10:09:14;;;;;;;20.50;19.30;;;14.50;99.90;;;;;;5014035;28;20874;-72
2023/10/22 10:11:42;;;;;;;9.60;7.20;;;14.70;99.90;;;;;;5014196;28;20487;-72
2023/10/22 10:14:13;;;;;;;10.30;8.50;;;14.70;99.60;;;;;;5014286;28;20507;-72
2023/10/22 10:16:43;;;;;;;9.63;8.77;;;14.80;99.60;;;;;;5013888;28;20449;-72
2023/10/22 10:19:10;;;;;;;12.00;11.10;;;14.90;99.90;;;;;;5013806;28;20962;-72
2023/10/22 10:21:43;;;;;;;25.80;24.50;;;14.90;99.90;;;;;;5014214;28;20793;-72
2023/10/22 10:24:23;;;;;;;24.70;23.60;;;14.90;99.90;;;;;;5014210;28;20459;-72
2023/10/22 10:26:52;;;;;;;16.30;15.03;;;15.00;99.90;;;;;;5014104;28;20544;-71
2023/10/22 10:29:21;;;;;;;8.33;7.73;;;15.20;99.90;;;;;;5013858;28;20449;-72
2023/10/22 10:31:48;;;;;;;8.90;8.10;;;15.60;99.90;;;;;;5013485;28;20563;-72
2023/10/22 10:34:26;;;;;;;9.07;5.87;;;15.60;99.90;;;;;;5013742;28;20489;-72
2023/10/22 10:36:55;;;;;;;7.03;5.23;;;15.60;99.90;;;;;;5013976;28;20452;-71
2023/10/22 10:39:39;;;;;;;5.23;4.50;;;15.50;99.90;;;;;;5013589;28;20463;-71
2023/10/22 10:42:06;;;;;;;10.73;7.37;;;15.20;99.80;;;;;;5013499;28;20480;-71
2023/10/22 10:44:55;;;;;;;7.27;6.57;;;15.20;99.80;;;;;;5013581;28;20445;-71
2023/10/22 10:47:36;;;;;;;8.60;6.90;;;15.20;99.80;;;;;;5013447;28;20457;-71
2023/10/22 10:50:05;;;;;;;4.90;4.40;;;15.40;99.90;;;;;;5013413;28;20448;-72
2023/10/22 10:52:32;;;;;;;4.73;4.23;;;15.30;99.80;;;;;;5013108;28;20492;-72
2023/10/22 10:55:01;;;;;;;4.90;4.40;;;15.40;99.80;;;;;;5013416;28;20456;-72
2023/10/22 10:57:35;;;;;;;5.33;3.20;;;15.50;99.90;;;;;;5013312;28;20454;-72
2023/10/22 11:00:04;;;;;;;8.63;2.57;;;15.50;97.50;;;;;;5013418;28;20457;-72
2023/10/22 11:02:39;;;;;;;7.90;4.23;;;15.70;98.20;;;;;;5013242;28;20456;-71
2023/10/22 11:05:06;;;;;;;7.80;3.17;;;15.60;98.40;;;;;;5013041;28;20834;-71
2023/10/22 11:07:34;;;;;;;4.80;2.40;;;15.40;98.10;;;;;;5013155;28;20451;-71
2023/10/22 11:10:08;;;;;;;5.90;4.00;;;15.30;98.60;;;;;;5013063;28;20515;-71
2023/10/22 11:12:35;;;;;;;6.53;3.00;;;15.60;99.90;;;;;;5013384;28;20481;-71
2023/10/22 11:15:01;;;;;;;4.37;2.43;;;15.70;97.80;;;;;;5013006;28;20539;-72
2023/10/22 11:17:28;;;;;;;3.80;2.00;;;15.70;96.70;;;;;;5012873;28;20540;-72
2023/10/22 11:19:55;;;;;;;4.17;1.90;;;16.00;96.40;;;;;;5012518;28;20683;-71
2023/10/22 11:22:23;;;;;;;3.80;1.67;;;16.50;95.30;;;;;;5012998;28;20548;-71
2023/10/22 11:24:51;;;;;;;4.33;1.40;;;16.20;91.90;;;;;;5012754;28;20449;-72
2023/10/22 11:27:20;;;;;;;6.80;1.60;;;16.10;90.80;;;;;;5012977;28;20798;-72
2023/10/22 11:29:48;;;;;;;5.73;1.73;;;16.20;93.50;;;;;;5012863;28;20512;-71
2023/10/22 11:32:17;;;;;;;4.53;1.80;;;16.60;90.30;;;;;;5012539;28;20469;-71
2023/10/22 11:34:51;;;;;;;4.10;1.20;;;17.30;87.60;;;;;;5012698;28;20647;-71
2023/10/22 11:37:21;;;;;;;6.07;1.43;;;17.30;83.60;;;;;;5012971;28;20528;-72
2023/10/22 11:39:48;;;;;;;6.23;1.47;;;17.10;83.40;;;;;;5013115;28;20488;-72
2023/10/22 11:42:15;;;;;;;3.90;1.13;;;17.30;83.60;;;;;;5012499;28;20557;-72
2023/10/22 11:44:46;;;;;;;7.73;1.20;;;17.50;83.70;;;;;;5012436;28;20453;-72
2023/10/22 11:47:26;;;;;;;4.87;1.20;;;17.80;84.10;;;;;;5012648;28;20457;-72
2023/10/22 11:49:54;;;;;;;3.70;0.80;;;17.90;84.20;;;;;;5012473;28;20511;-72
2023/10/22 11:52:40;;;;;;;3.90;1.07;;;18.10;84.30;;;;;;5012292;28;20567;-72
2023/10/22 11:55:09;;;;;;;4.23;0.90;;;18.20;84.40;;;;;;5012319;28;20523;-72
2023/10/22 11:57:38;;;;;;;3.70;1.10;;;17.60;83.80;;;;;;5012682;28;20452;-71
2023/10/22 12:00:09;;;;;;;3.80;1.10;;;17.50;83.80;;;;;;5012599;28;20451;-71
2023/10/22 12:02:36;;;;;;;3.87;1.10;;;17.80;84.10;;;;;;5012407;28;20959;-71
2023/10/22 12:05:04;;;;;;;3.80;0.80;;;18.50;84.70;;;;;;5012360;28;20537;-71
2023/10/22 12:07:31;;;;;;;4.77;1.03;;;18.80;77.10;;;;;;5012273;28;20449;-72
2023/10/22 12:09:58;;;;;;;4.57;0.90;;;19.30;69.50;;;;;;5012568;28;20459;-71
2023/10/22 12:12:25;;;;;;;4.10;0.90;;;19.40;69.60;;;;;;5012219;28;20481;-72
2023/10/22 12:14:52;;;;;;;3.90;0.83;;;19.10;69.20;;;;;;5012657;28;20456;-72
2023/10/22 12:17:21;;;;;;;5.27;0.90;;;18.90;69.10;;;;;;5012309;28;20463;-72
2023/10/22 12:19:48;;;;;;;3.70;0.80;;;18.70;69.00;;;;;;5012369;28;20448;-71
2023/10/22 12:22:14;;;;;;;4.27;0.90;;;18.70;69.00;;;;;;5012156;28;20449;-71
2023/10/22 12:24:41;;;;;;;4.10;1.00;;;18.90;69.10;;;;;;5012336;28;20481;-72
2023/10/22 12:27:08;;;;;;;4.50;1.47;;;18.70;70.10;;;;;;5012225;28;20459;-72
2023/10/22 12:29:35;;;;;;;5.13;0.90;;;18.20;77.10;;;;;;5012238;28;20445;-72